sensor_id;sensor_type;location;lat;lon;timestamp;pressure;altitude;pressure_sealevel;temperature;humidity
71764;BME280;59602;52.142;5.408;2023-07-16T00:01:54;100896.28;;;18.65;63.21
71764;BME280;59602;52.142;5.408;2023-07-16T00:04:21;100906.06;;;18.66;62.68
71764;BME280;59602;52.142;5.408;2023-07-16T00:06:48;100905.31;;;18.65;62.62
71764;BME280;59602;52.142;5.408;2023-07-16T00:09:15;100907.31;;;18.65;62.09
71764;BME280;59602;52.142;5.408;2023-07-16T00:11:41;100898.69;;;18.63;62.30
71764;BME280;59602;52.142;5.408;2023-07-16T00:14:10;100899.47;;;18.63;61.61
71764;BME280;59602;52.142;5.408;2023-07-16T00:16:40;100902.56;;;18.65;61.82
71764;BME280;59602;52.142;5.408;2023-07-16T00:19:10;100898.63;;;18.66;61.14
71764;BME280;59602;52.142;5.408;2023-07-16T00:21:38;100896.16;;;18.68;61.17
71764;BME280;59602;52.142;5.408;2023-07-16T00:24:05;100899.03;;;18.65;60.88
71764;BME280;59602;52.142;5.408;2023-07-16T00:26:31;100891.19;;;18.63;61.26
71764;BME280;59602;52.142;5.408;2023-07-16T00:28:58;100893.53;;;18.65;60.97
71764;BME280;59602;52.142;5.408;2023-07-16T00:31:25;100896.63;;;18.67;60.90
71764;BME280;59602;52.142;5.408;2023-07-16T00:33:51;100893.88;;;18.67;60.54
71764;BME280;59602;52.142;5.408;2023-07-16T00:36:18;100894.28;;;18.65;60.89
71764;BME280;59602;52.142;5.408;2023-07-16T00:38:45;100914.34;;;18.66;60.08
71764;BME280;59602;52.142;5.408;2023-07-16T00:41:13;100907.66;;;18.67;60.83
71764;BME280;59602;52.142;5.408;2023-07-16T00:43:41;100910.81;;;18.65;60.24
71764;BME280;59602;52.142;5.408;2023-07-16T00:46:08;100923.41;;;18.66;60.94
71764;BME280;59602;52.142;5.408;2023-07-16T00:48:35;100914.69;;;18.68;60.69
71764;BME280;59602;52.142;5.408;2023-07-16T00:51:02;100910.06;;;18.65;60.72
71764;BME280;59602;52.142;5.408;2023-07-16T00:53:30;100922.25;;;18.64;60.19
71764;BME280;59602;52.142;5.408;2023-07-16T00:55:58;100925.03;;;18.64;60.32
71764;BME280;59602;52.142;5.408;2023-07-16T00:58:25;100921.59;;;18.60;60.56
71764;BME280;59602;52.142;5.408;2023-07-16T01:00:52;100923.56;;;18.59;59.97
71764;BME280;59602;52.142;5.408;2023-07-16T01:03:19;100924.00;;;18.58;60.82
71764;BME280;59602;52.142;5.408;2023-07-16T01:06:06;100923.22;;;18.57;61.01
71764;BME280;59602;52.142;5.408;2023-07-16T01:08:41;100924.44;;;18.56;60.35
71764;BME280;59602;52.142;5.408;2023-07-16T01:11:09;100919.88;;;18.50;61.35
71764;BME280;59602;52.142;5.408;2023-07-16T01:13:36;100921.94;;;18.45;60.62
71764;BME280;59602;52.142;5.408;2023-07-16T01:16:03;100924.00;;;18.41;60.57
71764;BME280;59602;52.142;5.408;2023-07-16T01:18:30;100915.75;;;18.41;61.50
71764;BME280;59602;52.142;5.408;2023-07-16T01:20:57;100913.69;;;18.45;60.75
71764;BME280;59602;52.142;5.408;2023-07-16T01:23:38;100912.06;;;18.48;60.91
71764;BME280;59602;52.142;5.408;2023-07-16T01:26:12;100910.41;;;18.51;60.86
71764;BME280;59602;52.142;5.408;2023-07-16T01:31:21;100915.16;;;18.50;61.13
71764;BME280;59602;52.142;5.408;2023-07-16T01:33:49;100916.88;;;18.44;61.35
71764;BME280;59602;52.142;5.408;2023-07-16T01:36:18;100911.03;;;18.42;61.18
71764;BME280;59602;52.142;5.408;2023-07-16T01:38:46;100915.34;;;18.43;61.81
71764;BME280;59602;52.142;5.408;2023-07-16T01:41:12;100911.81;;;18.42;60.84
71764;BME280;59602;52.142;5.408;2023-07-16T01:43:39;100917.75;;;18.41;60.93
71764;BME280;59602;52.142;5.408;2023-07-16T01:46:06;100911.88;;;18.39;61.43
71764;BME280;59602;52.142;5.408;2023-07-16T01:48:34;100913.44;;;18.40;61.46
71764;BME280;59602;52.142;5.408;2023-07-16T01:51:02;100913.09;;;18.38;61.18
71764;BME280;59602;52.142;5.408;2023-07-16T01:53:29;100912.75;;;18.36;61.91
71764;BME280;59602;52.142;5.408;2023-07-16T01:56:01;100919.56;;;18.31;61.49
71764;BME280;59602;52.142;5.408;2023-07-16T01:58:28;100909.41;;;18.28;61.56
71764;BME280;59602;52.142;5.408;2023-07-16T02:00:55;100916.53;;;18.25;62.44
71764;BME280;59602;52.142;5.408;2023-07-16T02:03:22;100906.41;;;18.22;62.05
71764;BME280;59602;52.142;5.408;2023-07-16T02:05:52;100913.09;;;18.21;62.29
71764;BME280;59602;52.142;5.408;2023-07-16T02:08:19;100916.19;;;18.23;62.35
71764;BME280;59602;52.142;5.408;2023-07-16T02:10:47;100913.91;;;18.22;63.06
71764;BME280;59602;52.142;5.408;2023-07-16T02:13:15;100914.38;;;18.17;63.02
71764;BME280;59602;52.142;5.408;2023-07-16T02:15:45;100921.47;;;18.18;63.15
71764;BME280;59602;52.142;5.408;2023-07-16T02:18:14;100913.09;;;18.21;62.91
71764;BME280;59602;52.142;5.408;2023-07-16T02:20:41;100909.22;;;18.19;62.51
71764;BME280;59602;52.142;5.408;2023-07-16T02:23:09;100907.69;;;18.18;62.76
71764;BME280;59602;52.142;5.408;2023-07-16T02:25:36;100916.31;;;18.20;63.01
71764;BME280;59602;52.142;5.408;2023-07-16T02:28:03;100911.91;;;18.22;63.14
71764;BME280;59602;52.142;5.408;2023-07-16T02:30:29;100908.38;;;18.22;63.42
71764;BME280;59602;52.142;5.408;2023-07-16T02:32:56;100916.31;;;18.20;63.80
71764;BME280;59602;52.142;5.408;2023-07-16T02:35:23;100911.63;;;18.17;64.18
71764;BME280;59602;52.142;5.408;2023-07-16T02:37:51;100915.97;;;18.18;64.48
71764;BME280;59602;52.142;5.408;2023-07-16T02:40:20;100918.78;;;18.14;64.57
71764;BME280;59602;52.142;5.408;2023-07-16T02:42:50;100911.63;;;18.17;64.28
71764;BME280;59602;52.142;5.408;2023-07-16T02:45:16;100913.19;;;18.18;64.51
71764;BME280;59602;52.142;5.408;2023-07-16T02:47:45;100914.75;;;18.19;64.52
71764;BME280;59602;52.142;5.408;2023-07-16T02:50:12;100918.72;;;18.18;64.18
71764;BME280;59602;52.142;5.408;2023-07-16T02:52:39;100921.00;;;18.19;63.84
71764;BME280;59602;52.142;5.408;2023-07-16T02:55:06;100922.66;;;18.17;63.99
71764;BME280;59602;52.142;5.408;2023-07-16T02:57:33;100915.19;;;18.17;64.24
71764;BME280;59602;52.142;5.408;2023-07-16T02:59:59;100924.63;;;18.16;64.62
71764;BME280;59602;52.142;5.408;2023-07-16T03:02:26;100923.88;;;18.16;64.54
71764;BME280;59602;52.142;5.408;2023-07-16T03:05:18;100922.06;;;18.09;64.43
71764;BME280;59602;52.142;5.408;2023-07-16T03:07:47;100937.44;;;18.07;64.33
71764;BME280;59602;52.142;5.408;2023-07-16T03:10:13;100931.84;;;18.10;64.40
71764;BME280;59602;52.142;5.408;2023-07-16T03:12:40;100925.84;;;18.15;64.63
71764;BME280;59602;52.142;5.408;2023-07-16T03:15:08;100931.78;;;18.14;64.38
71764;BME280;59602;52.142;5.408;2023-07-16T03:17:34;100931.78;;;18.14;64.62
71764;BME280;59602;52.142;5.408;2023-07-16T03:20:02;100927.13;;;18.11;64.72
71764;BME280;59602;52.142;5.408;2023-07-16T03:22:31;100926.78;;;18.09;64.84
71764;BME280;59602;52.142;5.408;2023-07-16T03:24:57;100929.63;;;18.05;64.27
71764;BME280;59602;52.142;5.408;2023-07-16T03:27:24;100928.16;;;18.00;64.59
71764;BME280;59602;52.142;5.408;2023-07-16T03:29:51;100928.16;;;18.00;64.74
71764;BME280;59602;52.142;5.408;2023-07-16T03:32:17;100926.59;;;17.99;65.18
71764;BME280;59602;52.142;5.408;2023-07-16T03:34:44;100929.34;;;17.99;64.91
71764;BME280;59602;52.142;5.408;2023-07-16T03:37:11;100931.31;;;17.99;64.99
71764;BME280;59602;52.142;5.408;2023-07-16T03:39:38;100934.53;;;17.97;65.19
71764;BME280;59602;52.142;5.408;2023-07-16T03:42:07;100930.13;;;18.00;64.70
71764;BME280;59602;52.142;5.408;2023-07-16T03:44:34;100943.19;;;17.96;64.98
71764;BME280;59602;52.142;5.408;2023-07-16T03:47:01;100944.31;;;17.98;64.56
71764;BME280;59602;52.142;5.408;2023-07-16T03:49:30;100950.22;;;17.97;64.12
71764;BME280;59602;52.142;5.408;2023-07-16T03:51:57;100956.84;;;17.99;64.32
71764;BME280;59602;52.142;5.408;2023-07-16T03:54:24;100956.00;;;18.02;64.98
71764;BME280;59602;52.142;5.408;2023-07-16T03:56:50;100958.78;;;18.02;64.80
71764;BME280;59602;52.142;5.408;2023-07-16T03:59:17;100961.16;;;18.00;64.40
71764;BME280;59602;52.142;5.408;2023-07-16T04:01:45;100962.34;;;17.99;64.41
71764;BME280;59602;52.142;5.408;2023-07-16T04:04:12;100970.34;;;17.94;63.87
71764;BME280;59602;52.142;5.408;2023-07-16T04:06:38;100969.25;;;17.91;64.76
71764;BME280;59602;52.142;5.408;2023-07-16T04:09:08;100972.81;;;17.88;65.23
71764;BME280;59602;52.142;5.408;2023-07-16T04:11:36;100968.53;;;17.87;64.45
71764;BME280;59602;52.142;5.408;2023-07-16T04:14:02;100979.19;;;17.85;65.03
71764;BME280;59602;52.142;5.408;2023-07-16T04:16:29;100983.16;;;17.84;64.84
71764;BME280;59602;52.142;5.408;2023-07-16T04:18:56;100972.16;;;17.84;64.76
71764;BME280;59602;52.142;5.408;2023-07-16T04:21:25;100979.19;;;17.85;65.22
71764;BME280;59602;52.142;5.408;2023-07-16T04:23:52;100978.06;;;17.82;64.86
71764;BME280;59602;52.142;5.408;2023-07-16T04:26:18;100978.41;;;17.84;64.67
71764;BME280;59602;52.142;5.408;2023-07-16T04:28:45;100983.50;;;17.86;65.27
71764;BME280;59602;52.142;5.408;2023-07-16T04:31:11;100990.19;;;17.85;65.29
71764;BME280;59602;52.142;5.408;2023-07-16T04:33:38;100991.06;;;17.82;64.90
71764;BME280;59602;52.142;5.408;2023-07-16T04:36:05;100995.69;;;17.85;65.20
71764;BME280;59602;52.142;5.408;2023-07-16T04:38:33;101001.56;;;17.87;64.89
71764;BME280;59602;52.142;5.408;2023-07-16T04:41:00;100998.78;;;17.87;65.15
71764;BME280;59602;52.142;5.408;2023-07-16T04:43:27;100999.56;;;17.88;65.20
71764;BME280;59602;52.142;5.408;2023-07-16T04:45:58;100989.69;;;17.90;64.75
71764;BME280;59602;52.142;5.408;2023-07-16T04:48:27;101003.09;;;17.88;64.79
71764;BME280;59602;52.142;5.408;2023-07-16T04:50:54;101005.78;;;17.92;65.10
71764;BME280;59602;52.142;5.408;2023-07-16T04:53:23;101008.09;;;17.93;64.79
71764;BME280;59602;52.142;5.408;2023-07-16T04:55:50;101006.13;;;17.94;64.20
71764;BME280;59602;52.142;5.408;2023-07-16T04:58:17;101011.13;;;17.99;63.58
71764;BME280;59602;52.142;5.408;2023-07-16T05:00:43;101007.53;;;18.02;63.54
71764;BME280;59602;52.142;5.408;2023-07-16T05:03:10;101012.94;;;18.05;63.66
71764;BME280;59602;52.142;5.408;2023-07-16T05:05:37;101020.84;;;18.03;64.29
71764;BME280;59602;52.142;5.408;2023-07-16T05:08:05;101019.72;;;18.01;63.79
71764;BME280;59602;52.142;5.408;2023-07-16T05:10:33;101018.09;;;18.03;64.16
71764;BME280;59602;52.142;5.408;2023-07-16T05:13:00;101023.53;;;18.07;63.54
71764;BME280;59602;52.142;5.408;2023-07-16T05:15:26;101014.34;;;18.14;63.34
71764;BME280;59602;52.142;5.408;2023-07-16T05:17:53;101018.22;;;18.16;63.74
71764;BME280;59602;52.142;5.408;2023-07-16T05:20:21;101016.56;;;18.19;63.54
71764;BME280;59602;52.142;5.408;2023-07-16T05:22:47;101011.00;;;18.22;63.64
71764;BME280;59602;52.142;5.408;2023-07-16T05:25:14;101010.13;;;18.25;63.00
71764;BME280;59602;52.142;5.408;2023-07-16T05:27:43;101015.63;;;18.25;62.03
71764;BME280;59602;52.142;5.408;2023-07-16T05:30:10;101023.13;;;18.25;62.12
71764;BME280;59602;52.142;5.408;2023-07-16T05:32:40;101024.25;;;18.28;62.72
71764;BME280;59602;52.142;5.408;2023-07-16T05:35:07;101023.72;;;18.33;62.59
71764;BME280;59602;52.142;5.408;2023-07-16T05:37:33;101034.25;;;18.38;61.59
71764;BME280;59602;52.142;5.408;2023-07-16T05:40:00;101043.97;;;18.42;62.59
71764;BME280;59602;52.142;5.408;2023-07-16T05:42:27;101047.16;;;18.41;61.06
71764;BME280;59602;52.142;5.408;2023-07-16T05:44:54;101053.34;;;18.45;61.93
71764;BME280;59602;52.142;5.408;2023-07-16T05:47:21;101046.56;;;18.50;62.87
71764;BME280;59602;52.142;5.408;2023-07-16T05:49:50;101053.88;;;18.56;62.28
71764;BME280;59602;52.142;5.408;2023-07-16T05:52:17;101065.47;;;18.64;62.13
71764;BME280;59602;52.142;5.408;2023-07-16T05:54:44;101072.63;;;18.61;60.73
71764;BME280;59602;52.142;5.408;2023-07-16T05:57:11;101065.34;;;18.71;61.05
71764;BME280;59602;52.142;5.408;2023-07-16T05:59:38;101058.13;;;18.77;61.53
71764;BME280;59602;52.142;5.408;2023-07-16T06:02:15;101065.53;;;18.97;61.10
71764;BME280;59602;52.142;5.408;2023-07-16T06:04:44;101060.16;;;19.06;60.73
71764;BME280;59602;52.142;5.408;2023-07-16T06:07:12;101063.53;;;19.14;60.49
71764;BME280;59602;52.142;5.408;2023-07-16T06:09:39;101051.00;;;19.25;59.42
71764;BME280;59602;52.142;5.408;2023-07-16T06:12:06;101066.50;;;19.36;59.04
71764;BME280;59602;52.142;5.408;2023-07-16T06:14:32;101059.22;;;19.42;58.38
71764;BME280;59602;52.142;5.408;2023-07-16T06:16:59;101065.78;;;19.48;57.95
71764;BME280;59602;52.142;5.408;2023-07-16T06:19:25;101079.47;;;19.52;58.56
71764;BME280;59602;52.142;5.408;2023-07-16T06:21:52;101072.31;;;19.54;58.67
71764;BME280;59602;52.142;5.408;2023-07-16T06:24:21;101068.19;;;19.75;58.71
71764;BME280;59602;52.142;5.408;2023-07-16T06:26:49;101079.38;;;19.84;58.25
71764;BME280;59602;52.142;5.408;2023-07-16T06:29:16;101066.84;;;19.96;58.15
71764;BME280;59602;52.142;5.408;2023-07-16T06:31:42;101074.22;;;19.99;57.01
71764;BME280;59602;52.142;5.408;2023-07-16T06:34:11;101080.75;;;20.05;57.24
71764;BME280;59602;52.142;5.408;2023-07-16T06:36:38;101073.13;;;20.22;57.23
71764;BME280;59602;52.142;5.408;2023-07-16T06:39:22;101071.81;;;20.27;56.82
71764;BME280;59602;52.142;5.408;2023-07-16T06:41:56;101076.69;;;20.36;56.33
71764;BME280;59602;52.142;5.408;2023-07-16T06:44:22;101069.06;;;20.40;55.87
71764;BME280;59602;52.142;5.408;2023-07-16T06:46:50;101082.69;;;20.60;55.85
71764;BME280;59602;52.142;5.408;2023-07-16T06:49:21;101082.22;;;20.74;56.49
71764;BME280;59602;52.142;5.408;2023-07-16T06:51:49;101087.28;;;20.88;55.92
71764;BME280;59602;52.142;5.408;2023-07-16T06:54:17;101081.09;;;20.84;56.07
71764;BME280;59602;52.142;5.408;2023-07-16T06:56:45;101097.69;;;20.97;55.97
71764;BME280;59602;52.142;5.408;2023-07-16T06:59:14;101089.16;;;21.04;54.86
71764;BME280;59602;52.142;5.408;2023-07-16T07:01:42;101096.00;;;21.12;54.47
71764;BME280;59602;52.142;5.408;2023-07-16T07:04:12;101087.13;;;21.18;55.14
71764;BME280;59602;52.142;5.408;2023-07-16T07:06:43;101100.97;;;21.05;54.10
71764;BME280;59602;52.142;5.408;2023-07-16T07:09:12;101102.28;;;21.13;54.62
71764;BME280;59602;52.142;5.408;2023-07-16T07:11:39;101104.38;;;21.22;54.82
71764;BME280;59602;52.142;5.408;2023-07-16T07:14:09;101111.97;;;21.30;54.77
71764;BME280;59602;52.142;5.408;2023-07-16T07:16:43;101111.75;;;21.25;54.44
71764;BME280;59602;52.142;5.408;2023-07-16T07:19:10;101139.41;;;21.25;54.71
71764;BME280;59602;52.142;5.408;2023-07-16T07:21:36;101124.75;;;21.02;54.36
71764;BME280;59602;52.142;5.408;2023-07-16T07:24:06;101125.56;;;20.77;55.92
71764;BME280;59602;52.142;5.408;2023-07-16T07:26:42;101128.75;;;20.63;55.72
71764;BME280;59602;52.142;5.408;2023-07-16T07:29:08;101131.72;;;20.56;56.42
71764;BME280;59602;52.142;5.408;2023-07-16T07:31:37;101138.81;;;20.82;56.03
71764;BME280;59602;52.142;5.408;2023-07-16T07:34:04;101153.06;;;20.93;55.52
71764;BME280;59602;52.142;5.408;2023-07-16T07:36:33;101137.72;;;20.92;55.12
71764;BME280;59602;52.142;5.408;2023-07-16T07:39:07;101139.25;;;20.81;56.36
71764;BME280;59602;52.142;5.408;2023-07-16T07:41:58;101142.91;;;20.78;55.68
71764;BME280;59602;52.142;5.408;2023-07-16T07:44:28;101146.81;;;20.67;56.08
71764;BME280;59602;52.142;5.408;2023-07-16T07:46:54;101142.81;;;20.68;56.17
71764;BME280;59602;52.142;5.408;2023-07-16T07:49:22;101149.44;;;20.84;56.49
71764;BME280;59602;52.142;5.408;2023-07-16T07:51:49;101140.25;;;20.87;56.48
71764;BME280;59602;52.142;5.408;2023-07-16T07:54:16;101155.63;;;20.75;56.59
71764;BME280;59602;52.142;5.408;2023-07-16T07:56:45;101160.72;;;20.64;57.62
71764;BME280;59602;52.142;5.408;2023-07-16T07:59:12;101160.38;;;20.62;57.98
71764;BME280;59602;52.142;5.408;2023-07-16T08:01:38;101157.28;;;20.60;58.81
71764;BME280;59602;52.142;5.408;2023-07-16T08:04:05;101167.63;;;20.43;57.72
71764;BME280;59602;52.142;5.408;2023-07-16T08:06:32;101168.28;;;20.34;58.28
71764;BME280;59602;52.142;5.408;2023-07-16T08:08:59;101170.50;;;20.39;57.16
71764;BME280;59602;52.142;5.408;2023-07-16T08:11:25;101165.75;;;20.52;57.07
71764;BME280;59602;52.142;5.408;2023-07-16T08:13:52;101177.06;;;20.58;56.47
71764;BME280;59602;52.142;5.408;2023-07-16T08:16:20;101175.53;;;20.57;57.62
71764;BME280;59602;52.142;5.408;2023-07-16T08:18:46;101172.00;;;20.57;57.99
71764;BME280;59602;52.142;5.408;2023-07-16T08:21:13;101182.91;;;20.60;58.56
71764;BME280;59602;52.142;5.408;2023-07-16T08:23:48;101186.91;;;20.59;58.76
71764;BME280;59602;52.142;5.408;2023-07-16T08:26:16;101190.13;;;20.70;58.85
71764;BME280;59602;52.142;5.408;2023-07-16T08:28:44;101181.06;;;20.83;57.20
71764;BME280;59602;52.142;5.408;2023-07-16T08:31:11;101178.84;;;20.90;57.43
71764;BME280;59602;52.142;5.408;2023-07-16T08:33:39;101181.16;;;21.05;56.83
71764;BME280;59602;52.142;5.408;2023-07-16T08:36:06;101185.34;;;21.09;56.33
71764;BME280;59602;52.142;5.408;2023-07-16T08:38:33;101188.34;;;21.02;56.54
71764;BME280;59602;52.142;5.408;2023-07-16T08:41:00;101197.63;;;20.96;56.53
71764;BME280;59602;52.142;5.408;2023-07-16T08:43:28;101204.72;;;20.97;56.95
71764;BME280;59602;52.142;5.408;2023-07-16T08:45:56;101199.06;;;21.00;56.96
71764;BME280;59602;52.142;5.408;2023-07-16T08:48:22;101198.53;;;20.92;57.47
71764;BME280;59602;52.142;5.408;2023-07-16T08:50:49;101209.59;;;20.92;58.34
71764;BME280;59602;52.142;5.408;2023-07-16T08:53:17;101205.94;;;20.96;57.20
71764;BME280;59602;52.142;5.408;2023-07-16T08:55:44;101227.38;;;20.91;57.75
71764;BME280;59602;52.142;5.408;2023-07-16T08:58:14;101217.00;;;20.96;58.22
71764;BME280;59602;52.142;5.408;2023-07-16T09:00:43;101214.66;;;21.07;57.55
71764;BME280;59602;52.142;5.408;2023-07-16T09:03:12;101218.88;;;21.11;56.67
71764;BME280;59602;52.142;5.408;2023-07-16T09:05:40;101220.09;;;21.10;56.37
71764;BME280;59602;52.142;5.408;2023-07-16T09:08:07;101224.19;;;21.06;57.36
71764;BME280;59602;52.142;5.408;2023-07-16T09:10:35;101225.63;;;21.23;57.06
71764;BME280;59602;52.142;5.408;2023-07-16T09:13:02;101233.91;;;21.10;55.94
71764;BME280;59602;52.142;5.408;2023-07-16T09:15:29;101224.19;;;21.06;57.72
71764;BME280;59602;52.142;5.408;2023-07-16T09:17:56;101238.22;;;21.11;57.33
71764;BME280;59602;52.142;5.408;2023-07-16T09:20:23;101240.75;;;21.19;56.29
71764;BME280;59602;52.142;5.408;2023-07-16T09:22:54;101229.41;;;21.17;56.70
71764;BME280;59602;52.142;5.408;2023-07-16T09:25:26;101256.59;;;21.18;57.15
71764;BME280;59602;52.142;5.408;2023-07-16T09:27:53;101249.28;;;21.11;56.40
71764;BME280;59602;52.142;5.408;2023-07-16T09:30:20;101240.22;;;20.98;56.59
71764;BME280;59602;52.142;5.408;2023-07-16T09:32:46;101248.84;;;21.00;57.47
71764;BME280;59602;52.142;5.408;2023-07-16T09:35:15;101247.09;;;21.06;56.13
71764;BME280;59602;52.142;5.408;2023-07-16T09:37:42;101253.91;;;21.27;56.76
71764;BME280;59602;52.142;5.408;2023-07-16T09:40:11;101243.09;;;21.46;56.43
71764;BME280;59602;52.142;5.408;2023-07-16T09:42:39;101239.78;;;21.51;55.81
71764;BME280;59602;52.142;5.408;2023-07-16T09:45:07;101253.38;;;21.45;55.84
71764;BME280;59602;52.142;5.408;2023-07-16T09:47:35;101245.63;;;21.40;57.48
71764;BME280;59602;52.142;5.408;2023-07-16T09:50:02;101262.69;;;21.26;56.36
71764;BME280;59602;52.142;5.408;2023-07-16T09:52:32;101254.81;;;21.11;56.18
71764;BME280;59602;52.142;5.408;2023-07-16T09:55:01;101256.25;;;21.16;56.83
71764;BME280;59602;52.142;5.408;2023-07-16T09:57:34;101267.88;;;21.24;56.46
71764;BME280;59602;52.142;5.408;2023-07-16T10:00:05;101258.69;;;21.27;55.98
71764;BME280;59602;52.142;5.408;2023-07-16T10:02:34;101265.66;;;21.19;56.54
71764;BME280;59602;52.142;5.408;2023-07-16T10:05:12;101272.75;;;21.20;56.34
71764;BME280;59602;52.142;5.408;2023-07-16T10:07:39;101270.41;;;21.18;56.50
71764;BME280;59602;52.142;5.408;2023-07-16T10:10:08;101274.75;;;21.19;57.49
71764;BME280;59602;52.142;5.408;2023-07-16T10:12:36;101280.16;;;21.35;57.45
71764;BME280;59602;52.142;5.408;2023-07-16T10:15:05;101275.41;;;21.49;57.24
71764;BME280;59602;52.142;5.408;2023-07-16T10:17:32;101282.81;;;21.65;55.18
71764;BME280;59602;52.142;5.408;2023-07-16T10:20:07;101290.44;;;21.73;56.11
71764;BME280;59602;52.142;5.408;2023-07-16T10:22:42;101283.28;;;21.98;55.24
71764;BME280;59602;52.142;5.408;2023-07-16T10:25:26;101284.03;;;21.98;55.95
71764;BME280;59602;52.142;5.408;2023-07-16T10:27:53;101294.72;;;21.74;55.25
71764;BME280;59602;52.142;5.408;2023-07-16T10:30:20;101299.97;;;21.47;54.52
71764;BME280;59602;52.142;5.408;2023-07-16T10:32:50;101292.97;;;21.29;56.49
71764;BME280;59602;52.142;5.408;2023-07-16T10:35:16;101297.53;;;21.23;55.90
71764;BME280;59602;52.142;5.408;2023-07-16T10:37:43;101327.72;;;21.18;56.25
71764;BME280;59602;52.142;5.408;2023-07-16T10:40:12;101311.44;;;21.07;56.63
71764;BME280;59602;52.142;5.408;2023-07-16T10:42:42;101309.25;;;21.14;56.94
71764;BME280;59602;52.142;5.408;2023-07-16T10:45:10;101311.56;;;21.29;55.73
71764;BME280;59602;52.142;5.408;2023-07-16T10:47:39;101312.63;;;21.48;55.60
71764;BME280;59602;52.142;5.408;2023-07-16T10:50:08;101312.34;;;21.81;55.72
71764;BME280;59602;52.142;5.408;2023-07-16T10:52:36;101317.94;;;22.03;55.23
71764;BME280;59602;52.142;5.408;2023-07-16T10:55:05;101307.19;;;22.05;55.00
71764;BME280;59602;52.142;5.408;2023-07-16T10:57:32;101317.13;;;22.15;55.17
71764;BME280;59602;52.142;5.408;2023-07-16T10:59:59;101328.72;;;22.35;53.22
71764;BME280;59602;52.142;5.408;2023-07-16T11:02:26;101317.25;;;22.46;54.11
71764;BME280;59602;52.142;5.408;2023-07-16T11:04:55;101336.25;;;22.35;53.53
71764;BME280;59602;52.142;5.408;2023-07-16T11:07:26;101338.78;;;22.42;55.47
71764;BME280;59602;52.142;5.408;2023-07-16T11:09:54;101334.22;;;22.48;53.99
71764;BME280;59602;52.142;5.408;2023-07-16T11:12:22;101337.06;;;22.79;53.48
71764;BME280;59602;52.142;5.408;2023-07-16T11:14:53;101325.31;;;22.75;53.84
71764;BME280;59602;52.142;5.408;2023-07-16T11:17:23;101332.22;;;22.71;53.47
71764;BME280;59602;52.142;5.408;2023-07-16T11:19:52;101337.06;;;22.57;52.94
71764;BME280;59602;52.142;5.408;2023-07-16T11:22:19;101342.03;;;22.28;54.19
71764;BME280;59602;52.142;5.408;2023-07-16T11:24:47;101347.19;;;22.04;54.27
71764;BME280;59602;52.142;5.408;2023-07-16T11:29:49;101357.50;;;21.90;55.90
71764;BME280;59602;52.142;5.408;2023-07-16T11:32:34;101355.44;;;22.16;54.97
71764;BME280;59602;52.142;5.408;2023-07-16T11:35:03;101349.50;;;22.05;55.56
71764;BME280;59602;52.142;5.408;2023-07-16T11:37:31;101360.03;;;22.10;56.18
71764;BME280;59602;52.142;5.408;2023-07-16T11:40:02;101362.34;;;22.12;56.49
71764;BME280;59602;52.142;5.408;2023-07-16T11:42:33;101348.50;;;22.47;55.17
71764;BME280;59602;52.142;5.408;2023-07-16T11:45:01;101365.81;;;22.73;54.38
71764;BME280;59602;52.142;5.408;2023-07-16T11:47:29;101385.34;;;22.69;55.30
71764;BME280;59602;52.142;5.408;2023-07-16T11:49:56;101363.16;;;22.69;51.87
71764;BME280;59602;52.142;5.408;2023-07-16T11:52:26;101371.91;;;22.68;53.19
71764;BME280;59602;52.142;5.408;2023-07-16T11:54:56;101364.69;;;22.92;54.11
71764;BME280;59602;52.142;5.408;2023-07-16T11:57:23;101374.56;;;22.93;52.36
71764;BME280;59602;52.142;5.408;2023-07-16T11:59:49;101371.47;;;22.91;51.70
71764;BME280;59602;52.142;5.408;2023-07-16T12:02:16;101379.59;;;22.86;50.64
71764;BME280;59602;52.142;5.408;2023-07-16T12:04:43;101393.84;;;22.75;50.77
71764;BME280;59602;52.142;5.408;2023-07-16T12:07:10;101391.13;;;22.62;50.06
71764;BME280;59602;52.142;5.408;2023-07-16T12:09:36;101381.63;;;22.50;50.88
71764;BME280;59602;52.142;5.408;2023-07-16T12:12:03;101369.66;;;22.53;51.10
71764;BME280;59602;52.142;5.408;2023-07-16T12:14:31;101377.91;;;22.88;51.57
71764;BME280;59602;52.142;5.408;2023-07-16T12:16:58;101371.06;;;23.24;49.28
71764;BME280;59602;52.142;5.408;2023-07-16T12:19:25;101384.34;;;23.29;49.21
71764;BME280;59602;52.142;5.408;2023-07-16T12:21:51;101396.22;;;23.30;49.98
71764;BME280;59602;52.142;5.408;2023-07-16T12:24:20;101378.22;;;23.34;49.52
71764;BME280;59602;52.142;5.408;2023-07-16T12:26:46;101382.84;;;23.37;48.94
71764;BME280;59602;52.142;5.408;2023-07-16T12:29:13;101375.50;;;23.53;48.46
71764;BME280;59602;52.142;5.408;2023-07-16T12:31:39;101380.50;;;23.67;47.24
71764;BME280;59602;52.142;5.408;2023-07-16T12:34:06;101377.78;;;23.76;46.40
71764;BME280;59602;52.142;5.408;2023-07-16T12:36:33;101376.81;;;23.70;47.68
71764;BME280;59602;52.142;5.408;2023-07-16T12:38:59;101383.19;;;23.80;49.09
71764;BME280;59602;52.142;5.408;2023-07-16T12:46:45;101394.22;;;24.11;49.17
71764;BME280;59602;52.142;5.408;2023-07-16T12:52:12;101389.16;;;24.28;47.25
71764;BME280;59602;52.142;5.408;2023-07-16T13:06:51;101397.63;;;23.66;49.44
71764;BME280;59602;52.142;5.408;2023-07-16T13:10:08;101399.31;;;23.63;51.18
71764;BME280;59602;52.142;5.408;2023-07-16T13:13:00;101395.84;;;23.50;49.82
71764;BME280;59602;52.142;5.408;2023-07-16T13:15:44;101400.84;;;23.33;48.54
71764;BME280;59602;52.142;5.408;2023-07-16T13:18:45;101405.88;;;23.16;51.20
71764;BME280;59602;52.142;5.408;2023-07-16T13:21:14;101408.97;;;23.18;50.20
71764;BME280;59602;52.142;5.408;2023-07-16T13:23:41;101403.00;;;23.29;49.35